Time;durP1;ratioP1;P1;durP2;ratioP2;P2;SDS_P1;SDS_P2;PMS_P1;PMS_P2;Temp;Humidity;BMP_temperature;BMP_pressure;BME280_temperature;BME280_humidity;BME280_pressure;Samples;Min_cycle;Max_cycle;Signal;HPM_P1;HPM_P2
2022/11/21 00:00:49;;;;;;;107.27;54.20;;;;;;;-1.36;100.00;99792.16;1469695;88;21373;-79
2022/11/21 00:03:15;;;;;;;118.28;54.58;;;;;;;-1.37;100.00;99791.33;1400391;88;22130;-79
2022/11/21 00:05:45;;;;;;;105.83;50.35;;;;;;;-1.37;100.00;99782.23;1469087;86;21403;-78
2022/11/21 00:08:15;;;;;;;99.75;50.55;;;;;;;-1.38;100.00;99787.07;1508352;87;21723;-79
2022/11/21 00:10:42;;;;;;;91.32;50.40;;;;;;;-1.38;100.00;99776.69;1409414;87;21493;-79
2022/11/21 00:13:15;;;;;;;93.87;49.73;;;;;;;-1.39;99.91;99782.78;1459837;87;23209;-79
2022/11/21 00:15:42;;;;;;;97.12;47.67;;;;;;;-1.41;99.52;99791.14;1484115;87;21439;-80
2022/11/21 00:18:11;;;;;;;108.47;53.13;;;;;;;-1.42;99.17;99786.85;1482901;87;21498;-79
2022/11/21 00:20:39;;;;;;;93.62;49.20;;;;;;;-1.41;98.91;99783.35;1480721;87;21359;-80
2022/11/21 00:23:05;;;;;;;97.35;48.48;;;;;;;-1.46;98.53;99785.36;1413361;87;21492;-80
2022/11/21 00:25:31;;;;;;;86.65;48.15;;;;;;;-1.49;98.54;99789.44;1479052;87;21388;-80
2022/11/21 00:27:57;;;;;;;94.65;45.58;;;;;;;-1.51;98.33;99787.37;1471561;87;21757;-79
2022/11/21 00:30:24;;;;;;;102.65;48.92;;;;;;;-1.55;98.47;99794.97;1485278;86;21506;-80
2022/11/21 00:32:50;;;;;;;98.47;47.87;;;;;;;-1.58;98.15;99793.84;1484399;87;21424;-79
2022/11/21 00:35:16;;;;;;;110.75;52.95;;;;;;;-1.62;98.53;99776.77;1480202;87;22131;-79
2022/11/21 00:37:42;;;;;;;100.38;47.45;;;;;;;-1.60;98.42;99776.22;1482424;87;21485;-79
2022/11/21 00:40:10;;;;;;;98.05;47.38;;;;;;;-1.59;98.41;99773.99;1487584;87;21419;-79
2022/11/21 00:42:36;;;;;;;95.85;45.12;;;;;;;-1.59;98.76;99781.78;1406937;87;22180;-80
2022/11/21 00:45:03;;;;;;;99.22;49.25;;;;;;;-1.64;99.11;99777.30;1406905;89;21211;-78
2022/11/21 00:47:29;;;;;;;93.75;48.55;;;;;;;-1.67;99.46;99770.98;1525122;87;21286;-79
2022/11/21 00:49:55;;;;;;;85.07;45.43;;;;;;;-1.72;99.89;99775.62;1465620;87;22319;-78
2022/11/21 00:52:21;;;;;;;99.95;45.88;;;;;;;-1.74;100.00;99765.31;1480514;87;21687;-79
2022/11/21 00:54:47;;;;;;;97.20;47.35;;;;;;;-1.77;100.00;99765.95;1484980;86;23390;-79
2022/11/21 00:57:13;;;;;;;88.37;45.20;;;;;;;-1.76;100.00;99769.75;1481415;87;21374;-78
2022/11/21 00:59:39;;;;;;;84.10;42.03;;;;;;;-1.73;100.00;99766.98;1483143;86;22024;-80
2022/11/21 01:02:05;;;;;;;97.60;45.90;;;;;;;-1.72;100.00;99778.22;1487555;86;21410;-79
2022/11/21 01:04:33;;;;;;;85.92;43.38;;;;;;;-1.75;100.00;99761.06;1482609;87;21692;-80
2022/11/21 01:07:00;;;;;;;85.30;44.08;;;;;;;-1.71;100.00;99750.88;1406270;87;21234;-79
2022/11/21 01:09:27;;;;;;;88.33;42.00;;;;;;;-1.71;100.00;99739.20;1408039;87;21352;-79
2022/11/21 01:11:54;;;;;;;79.03;39.42;;;;;;;-1.68;100.00;99734.30;1408350;87;21323;-80
2022/11/21 01:14:20;;;;;;;80.95;40.88;;;;;;;-1.66;100.00;99731.99;1414155;87;21461;-80
2022/11/21 01:16:47;;;;;;;87.07;40.83;;;;;;;-1.65;100.00;99725.88;1438860;87;21426;-80
2022/11/21 01:19:13;;;;;;;74.32;41.13;;;;;;;-1.63;99.99;99725.80;1481755;87;22170;-80
2022/11/21 01:21:39;;;;;;;72.20;35.60;;;;;;;-1.65;99.87;99737.55;1484740;86;21425;-80
2022/11/21 01:24:05;;;;;;;78.67;40.10;;;;;;;-1.73;100.00;99744.09;1485239;86;21404;-80
2022/11/21 01:26:36;;;;;;;73.60;37.95;;;;;;;-1.71;100.00;99736.60;1478228;87;21418;-80
2022/11/21 01:29:03;;;;;;;64.17;35.28;;;;;;;-1.69;100.00;99732.17;1481026;87;21933;-80
2022/11/21 01:31:30;;;;;;;67.35;34.58;;;;;;;-1.65;100.00;99725.04;1462617;87;21514;-80
2022/11/21 01:33:58;;;;;;;69.85;34.92;;;;;;;-1.63;100.00;99733.58;1482939;86;21565;-79
2022/11/21 01:36:29;;;;;;;72.22;35.05;;;;;;;-1.62;100.00;99730.05;1444991;86;22327;-77
2022/11/21 01:39:02;;;;;;;50.92;29.50;;;;;;;-1.62;100.00;99732.65;1476738;86;22563;-79
2022/11/21 01:41:38;;;;;;;60.65;32.80;;;;;;;-1.64;100.00;99718.91;1484516;87;21528;-78
2022/11/21 01:44:28;;;;;;;53.58;29.27;;;;;;;-1.64;100.00;99705.94;1482769;86;22326;-80
2022/11/21 01:46:54;;;;;;;54.60;28.67;;;;;;;-1.74;100.00;99705.64;1458348;87;21462;-78
2022/11/21 01:49:28;;;;;;;52.93;29.00;;;;;;;-1.73;100.00;99693.50;1481730;86;21360;-79
2022/11/21 01:52:11;;;;;;;54.23;26.40;;;;;;;-1.67;100.00;99690.55;1483486;87;21581;-79
2022/11/21 01:55:00;;;;;;;50.88;27.07;;;;;;;-1.67;100.00;99700.93;1484632;86;22388;-79
2022/11/21 01:57:30;;;;;;;45.78;23.65;;;;;;;-1.65;100.00;99692.14;1482929;86;21565;-77
2022/11/21 02:00:13;;;;;;;48.75;28.02;;;;;;;-1.66;100.00;99694.38;1488125;86;21373;-77
2022/11/21 02:02:43;;;;;;;41.60;24.23;;;;;;;-1.68;100.00;99687.59;1481144;86;21387;-79
2022/11/21 02:05:15;;;;;;;42.00;22.65;;;;;;;-1.69;100.00;99682.05;1481830;87;21510;-78
2022/11/21 02:07:45;;;;;;;47.23;23.67;;;;;;;-1.68;100.00;99674.63;1484045;86;21609;-79
2022/11/21 02:10:12;;;;;;;51.00;24.32;;;;;;;-1.66;100.00;99675.38;1481158;87;22415;-80
2022/11/21 02:12:55;;;;;;;44.95;23.45;;;;;;;-1.62;100.00;99672.50;1484586;86;21529;-82
2022/11/21 02:15:25;;;;;;;44.45;24.25;;;;;;;-1.59;100.00;99677.98;1486686;86;22007;-79
2022/11/21 02:17:52;;;;;;;40.85;22.27;;;;;;;-1.59;99.68;99690.48;1480455;87;21389;-79
2022/11/21 02:20:22;;;;;;;45.45;24.37;;;;;;;-1.61;99.34;99688.93;1481234;87;21433;-80
2022/11/21 02:23:15;;;;;;;40.85;22.25;;;;;;;-1.60;99.40;99678.91;1482986;86;21488;-82
2022/11/21 02:25:42;;;;;;;47.15;23.62;;;;;;;-1.63;99.71;99680.39;1480148;87;21418;-81
2022/11/21 02:28:13;;;;;;;38.38;20.62;;;;;;;-1.65;99.86;99673.14;1481697;86;21389;-81
2022/11/21 02:30:42;;;;;;;40.60;21.73;;;;;;;-1.66;100.00;99668.89;1480331;86;22365;-83
2022/11/21 02:33:10;;;;;;;34.88;21.75;;;;;;;-1.67;100.00;99674.98;1473170;87;22401;-84
2022/11/21 02:35:36;;;;;;;34.48;20.75;;;;;;;-1.66;100.00;99665.00;1398960;88;21220;-81
2022/11/21 02:38:28;;;;;;;34.95;19.80;;;;;;;-1.61;100.00;99673.36;1407000;88;22321;-79
2022/11/21 02:41:06;;;;;;;36.08;21.60;;;;;;;-1.55;100.00;99676.89;1569661;86;21353;-79
2022/11/21 02:43:49;;;;;;;39.40;20.00;;;;;;;-1.53;99.82;99688.00;1572087;86;21191;-81
2022/11/21 02:46:15;;;;;;;39.90;21.77;;;;;;;-1.59;99.41;99683.17;1484116;87;21373;-80
2022/11/21 02:48:42;;;;;;;34.10;17.98;;;;;;;-1.63;99.71;99681.69;1486807;87;22418;-80
2022/11/21 02:51:08;;;;;;;37.85;21.62;;;;;;;-1.69;100.00;99671.66;1485380;86;21426;-81
2022/11/21 02:53:34;;;;;;;33.10;19.07;;;;;;;-1.69;100.00;99666.48;1485648;86;21308;-81
2022/11/21 02:56:00;;;;;;;35.58;20.48;;;;;;;-1.68;100.00;99661.19;1484873;86;21411;-80
2022/11/21 02:58:26;;;;;;;33.45;18.65;;;;;;;-1.66;100.00;99650.73;1480945;87;21499;-80
2022/11/21 03:00:54;;;;;;;38.63;21.17;;;;;;;-1.72;100.00;99651.09;1481151;86;21456;-83
2022/11/21 03:03:21;;;;;;;37.13;18.05;;;;;;;-1.71;100.00;99655.34;1481170;86;21535;-80
2022/11/21 03:05:47;;;;;;;37.63;20.77;;;;;;;-1.73;100.00;99650.69;1407639;87;21352;-80
2022/11/21 03:08:13;;;;;;;33.60;19.95;;;;;;;-1.73;100.00;99646.34;1407900;89;21946;-79
2022/11/21 03:10:39;;;;;;;34.03;19.20;;;;;;;-1.73;100.00;99648.10;1409259;87;21344;-80
2022/11/21 03:13:05;;;;;;;42.23;21.60;;;;;;;-1.73;100.00;99649.40;1408729;87;23146;-81
2022/11/21 03:15:33;;;;;;;34.23;19.30;;;;;;;-1.68;100.00;99651.27;1409214;87;21491;-80
2022/11/21 03:18:01;;;;;;;36.45;20.80;;;;;;;-1.64;100.00;99655.34;1543288;87;21389;-81
2022/11/21 03:20:33;;;;;;;35.75;20.43;;;;;;;-1.60;100.00;99661.58;1405841;87;21315;-81
2022/11/21 03:22:59;;;;;;;32.17;19.45;;;;;;;-1.55;100.00;99665.22;1572589;86;21339;-81
2022/11/21 03:25:26;;;;;;;36.65;20.30;;;;;;;-1.50;100.00;99657.97;1406286;89;21248;-80
2022/11/21 03:27:53;;;;;;;34.83;20.60;;;;;;;-1.47;100.00;99657.79;1408897;87;21308;-82
2022/11/21 03:30:21;;;;;;;37.33;20.00;;;;;;;-1.43;100.00;99653.28;1408316;87;22011;-82
2022/11/21 03:32:47;;;;;;;41.35;21.33;;;;;;;-1.38;100.00;99648.19;1445616;87;22497;-80
2022/11/21 03:35:14;;;;;;;42.88;21.30;;;;;;;-1.32;100.00;99643.53;1485842;87;21469;-83
2022/11/21 03:37:40;;;;;;;36.63;18.70;;;;;;;-1.29;100.00;99639.02;1485311;87;21979;-80
2022/11/21 03:40:08;;;;;;;41.87;22.67;;;;;;;-1.26;100.00;99638.00;1483318;87;23417;-77
2022/11/21 03:42:35;;;;;;;49.50;24.60;;;;;;;-1.25;100.00;99641.78;1408015;87;21541;-78
2022/11/21 03:45:01;;;;;;;57.13;24.07;;;;;;;-1.21;100.00;99638.54;1407760;89;21499;-77
2022/11/21 03:47:27;;;;;;;52.67;26.80;;;;;;;-1.14;100.00;99640.69;1408146;89;21545;-79
2022/11/21 03:49:53;;;;;;;46.93;22.57;;;;;;;-1.08;100.00;99635.58;1409278;87;21493;-79
2022/11/21 03:52:19;;;;;;;52.20;26.10;;;;;;;-1.07;100.00;99632.05;1409598;87;22449;-79
2022/11/21 03:54:45;;;;;;;53.33;24.73;;;;;;;-1.06;100.00;99629.84;1408019;87;21352;-78
2022/11/21 03:57:11;;;;;;;48.83;24.97;;;;;;;-0.98;100.00;99629.36;1553260;87;21285;-77
2022/11/21 03:59:37;;;;;;;52.77;25.90;;;;;;;-0.91;100.00;99628.06;1423331;87;22415;-78
2022/11/21 04:02:03;;;;;;;43.47;23.73;;;;;;;-0.88;100.00;99627.05;1482804;86;21344;-77
2022/11/21 04:04:29;;;;;;;51.23;24.80;;;;;;;-0.89;100.00;99625.36;1483359;86;21475;-79
2022/11/21 04:06:55;;;;;;;55.43;24.77;;;;;;;-0.91;100.00;99616.38;1478646;86;21889;-77
2022/11/21 04:09:21;;;;;;;56.07;28.47;;;;;;;-0.92;100.00;99612.95;1477476;88;22570;-76
2022/11/21 04:11:47;;;;;;;52.03;26.53;;;;;;;-0.94;100.00;99613.97;1476007;87;21524;-78
2022/11/21 04:14:13;;;;;;;52.00;25.70;;;;;;;-0.88;100.00;99609.69;1482563;88;21425;-77
2022/11/21 04:16:39;;;;;;;46.37;23.80;;;;;;;-0.83;100.00;99604.22;1482926;86;21396;-78
2022/11/21 04:19:05;;;;;;;56.30;26.80;;;;;;;-0.80;100.00;99613.13;1483957;87;21506;-78
2022/11/21 04:21:31;;;;;;;62.07;27.90;;;;;;;-0.79;100.00;99612.18;1477111;88;21367;-79
2022/11/21 04:23:57;;;;;;;58.30;28.03;;;;;;;-0.74;100.00;99611.44;1481220;86;22394;-79
2022/11/21 04:26:23;;;;;;;56.30;28.13;;;;;;;-0.67;100.00;99607.51;1481209;86;21433;-79
2022/11/21 04:28:49;;;;;;;59.07;26.00;;;;;;;-0.62;100.00;99606.77;1480320;86;22072;-77
2022/11/21 04:31:15;;;;;;;52.80;27.57;;;;;;;-0.59;100.00;99601.37;1482647;87;21396;-78
2022/11/21 04:33:41;;;;;;;49.07;23.60;;;;;;;-0.60;100.00;99595.81;1489919;86;21352;-79
2022/11/21 04:36:08;;;;;;;51.53;24.03;;;;;;;-0.67;100.00;99594.98;1488001;87;21454;-80
2022/11/21 04:38:34;;;;;;;50.33;25.00;;;;;;;-0.72;100.00;99592.66;1482705;87;21572;-80
2022/11/21 04:41:00;;;;;;;59.20;27.83;;;;;;;-0.79;100.00;99587.50;1477140;86;21571;-79
2022/11/21 04:43:26;;;;;;;65.47;30.07;;;;;;;-0.82;100.00;99587.69;1484340;86;23601;-79
2022/11/21 04:45:52;;;;;;;69.80;31.10;;;;;;;-0.77;100.00;99583.88;1440040;88;21849;-78
2022/11/21 04:48:19;;;;;;;61.97;27.93;;;;;;;-0.73;100.00;99579.31;1483105;87;21708;-79
2022/11/21 04:50:45;;;;;;;67.97;29.07;;;;;;;-0.70;100.00;99580.42;1485633;87;21611;-79
2022/11/21 04:53:12;;;;;;;67.23;31.17;;;;;;;-0.65;100.00;99582.27;1481334;86;21677;-79
2022/11/21 04:55:38;;;;;;;81.43;34.33;;;;;;;-0.60;100.00;99585.42;1483465;86;21697;-78
2022/11/21 04:58:04;;;;;;;78.27;33.83;;;;;;;-0.54;100.00;99583.72;1483535;87;21605;-79
2022/11/21 05:00:30;;;;;;;64.63;29.90;;;;;;;-0.50;100.00;99581.75;1483962;87;22517;-79
2022/11/21 05:03:04;;;;;;;71.37;30.40;;;;;;;-0.42;100.00;99577.38;1483309;86;22741;-79
2022/11/21 05:05:30;;;;;;;77.47;32.87;;;;;;;-0.39;100.00;99567.60;1488724;86;21630;-79
2022/11/21 05:07:56;;;;;;;79.70;32.80;;;;;;;-0.38;100.00;99571.03;1487173;86;21649;-80
2022/11/21 05:10:23;;;;;;;74.23;30.97;;;;;;;-0.38;100.00;99569.26;1488635;87;21566;-80
2022/11/21 05:15:44;;;;;;;71.37;32.03;;;;;;;-0.47;100.00;99565.48;1479315;87;22822;-80
2022/11/21 05:18:11;;;;;;;70.40;29.90;;;;;;;-0.47;100.00;99558.98;1408598;87;21323;-81
2022/11/21 05:20:37;;;;;;;63.37;28.30;;;;;;;-0.47;100.00;99555.09;1409622;86;21507;-80
2022/11/21 05:23:03;;;;;;;82.30;34.47;;;;;;;-0.40;100.00;99556.84;1468020;87;21702;-81
2022/11/21 05:25:29;;;;;;;79.60;31.80;;;;;;;-0.31;100.00;99554.12;1489152;86;21492;-80
2022/11/21 05:27:55;;;;;;;76.63;32.13;;;;;;;-0.25;100.00;99561.52;1489510;86;22133;-78
2022/11/21 05:30:21;;;;;;;81.57;30.00;;;;;;;-0.19;100.00;99559.81;1492289;86;22726;-76
2022/11/21 05:32:48;;;;;;;82.67;32.83;;;;;;;-0.14;100.00;99560.34;1487188;86;21817;-78
2022/11/21 05:35:14;;;;;;;76.93;30.77;;;;;;;-0.12;100.00;99555.86;1486002;86;21816;-79
2022/11/21 05:37:40;;;;;;;68.50;31.80;;;;;;;-0.08;100.00;99553.91;1487858;86;22599;-75
2022/11/21 05:40:07;;;;;;;63.47;27.00;;;;;;;-0.05;100.00;99551.93;1483376;86;21578;-78
2022/11/21 05:45:19;;;;;;;61.73;28.07;;;;;;;0.03;100.00;99555.78;1570172;87;21380;-77
2022/11/21 05:47:45;;;;;;;59.07;27.80;;;;;;;0.02;100.00;99552.83;1459347;86;21592;-77
2022/11/21 05:50:12;;;;;;;49.90;24.43;;;;;;;0.02;100.00;99551.52;1484915;87;22011;-77
2022/11/21 05:52:38;;;;;;;52.47;25.67;;;;;;;-0.14;100.00;99551.72;1485938;86;21462;-77
2022/11/21 05:55:04;;;;;;;52.50;26.43;;;;;;;-0.15;100.00;99546.95;1493571;87;22443;-77
2022/11/21 05:57:30;;;;;;;52.23;27.10;;;;;;;-0.12;100.00;99546.75;1485335;86;21608;-77
2022/11/21 05:59:56;;;;;;;49.70;24.87;;;;;;;-0.05;100.00;99551.93;1486790;87;21677;-79
2022/11/21 06:05:08;;;;;;;50.23;24.50;;;;;;;-0.05;100.00;99555.84;1485612;86;21868;-77
2022/11/21 06:07:34;;;;;;;48.73;26.03;;;;;;;-0.10;100.00;99554.47;1459659;86;21551;-76
2022/11/21 06:10:00;;;;;;;59.03;29.30;;;;;;;-0.11;100.00;99552.81;1487364;87;21514;-76
2022/11/21 06:12:26;;;;;;;49.30;25.07;;;;;;;-0.11;100.00;99547.61;1479948;86;22497;-77
2022/11/21 06:14:52;;;;;;;56.67;25.17;;;;;;;-0.04;100.00;99547.09;1484763;86;21381;-78
2022/11/21 06:17:18;;;;;;;53.43;24.63;;;;;;;0.02;100.00;99545.02;1487190;87;22223;-78
2022/11/21 06:19:44;;;;;;;52.43;25.70;;;;;;;0.09;100.00;99551.50;1486764;86;21952;-78
2022/11/21 06:22:10;;;;;;;47.10;22.93;;;;;;;0.11;100.00;99547.00;1487671;86;21542;-78
2022/11/21 06:24:36;;;;;;;41.83;22.53;;;;;;;0.11;100.00;99553.50;1486561;86;21359;-79
2022/11/21 06:27:02;;;;;;;51.27;24.47;;;;;;;0.08;100.00;99554.54;1478389;87;21566;-80
2022/11/21 06:29:28;;;;;;;49.63;24.73;;;;;;;0.03;100.00;99558.38;1480393;87;22395;-78
2022/11/21 06:31:54;;;;;;;45.43;23.77;;;;;;;0.05;100.00;99552.62;1492006;87;21545;-78
2022/11/21 06:34:20;;;;;;;42.53;21.63;;;;;;;0.08;100.00;99548.03;1482678;87;21623;-78
2022/11/21 06:36:48;;;;;;;52.53;25.53;;;;;;;0.06;100.00;99551.67;1484134;87;21586;-77
2022/11/21 06:39:14;;;;;;;52.97;24.57;;;;;;;0.10;100.00;99555.75;1474506;87;21560;-76
2022/11/21 06:41:40;;;;;;;47.03;23.33;;;;;;;0.17;100.00;99557.00;1481303;88;22241;-76
2022/11/21 06:44:06;;;;;;;49.37;24.97;;;;;;;0.14;100.00;99554.13;1469294;88;21418;-84
2022/11/21 06:46:32;;;;;;;48.90;26.83;;;;;;;0.11;100.00;99560.02;1483497;87;21425;-84
2022/11/21 06:48:58;;;;;;;61.43;24.27;;;;;;;0.12;100.00;99563.00;1485486;87;21412;-84
2022/11/21 06:51:25;;;;;;;48.83;25.10;;;;;;;0.13;100.00;99560.75;1478084;87;21404;-83
2022/11/21 06:53:57;;;;;;;46.70;23.17;;;;;;;0.17;100.00;99553.09;1472546;87;22126;-84
2022/11/21 06:56:25;;;;;;;54.13;26.07;;;;;;;0.16;100.00;99560.55;1407045;87;21885;-84
2022/11/21 06:58:51;;;;;;;46.57;24.67;;;;;;;0.21;100.00;99557.17;1405371;87;22326;-84
2022/11/21 07:01:17;;;;;;;48.30;23.93;;;;;;;0.22;100.00;99555.75;1434879;87;21722;-84
2022/11/21 07:03:44;;;;;;;50.67;26.33;;;;;;;0.22;100.00;99550.55;1475135;87;21439;-84
2022/11/21 07:06:10;;;;;;;50.17;24.30;;;;;;;0.19;100.00;99551.23;1470387;88;21470;-85
2022/11/21 07:08:36;;;;;;;44.67;23.70;;;;;;;0.21;100.00;99561.08;1470921;88;21536;-84
2022/11/21 07:11:07;;;;;;;44.17;21.93;;;;;;;0.21;100.00;99553.27;1476748;88;21661;-83
2022/11/21 07:13:33;;;;;;;46.83;25.35;;;;;;;0.26;100.00;99549.03;1469049;88;21716;-83
2022/11/21 07:16:08;;;;;;;50.07;24.27;;;;;;;0.28;100.00;99554.51;1479028;88;22519;-81
2022/11/21 07:18:36;;;;;;;48.80;24.40;;;;;;;0.32;100.00;99553.86;1472283;88;22521;-81
2022/11/21 07:21:05;;;;;;;39.13;21.23;;;;;;;0.29;100.00;99545.78;1399055;88;21473;-80
2022/11/21 07:23:32;;;;;;;45.03;23.43;;;;;;;0.29;100.00;99552.73;1406472;88;21645;-79
2022/11/21 07:26:00;;;;;;;35.80;20.67;;;;;;;0.34;100.00;99550.19;1405314;87;21560;-80
2022/11/21 07:28:28;;;;;;;42.93;22.27;;;;;;;0.36;100.00;99552.70;1407056;87;21627;-79
2022/11/21 07:30:56;;;;;;;36.77;18.73;;;;;;;0.32;100.00;99559.06;1407598;87;21540;-82
2022/11/21 07:33:22;;;;;;;34.87;19.17;;;;;;;0.24;100.00;99564.77;1415022;87;21607;-79
2022/11/21 07:35:49;;;;;;;43.47;22.13;;;;;;;0.32;100.00;99568.17;1573149;87;21293;-81
2022/11/21 07:38:15;;;;;;;32.87;18.00;;;;;;;0.35;100.00;99566.19;1443422;87;21507;-82
2022/11/21 07:40:41;;;;;;;43.50;22.43;;;;;;;0.37;100.00;99565.59;1481685;87;23568;-80
2022/11/21 07:43:09;;;;;;;53.90;17.93;;;;;;;0.46;100.00;99568.04;1474495;87;21750;-84
2022/11/21 07:45:35;;;;;;;34.37;17.47;;;;;;;0.48;100.00;99560.97;1485795;87;22290;-82
2022/11/21 07:48:04;;;;;;;42.17;19.63;;;;;;;0.39;100.00;99559.82;1474876;87;21549;-81
2022/11/21 07:50:36;;;;;;;38.93;20.00;;;;;;;0.28;100.00;99560.19;1482896;87;21741;-81
2022/11/21 07:53:06;;;;;;;39.47;18.87;;;;;;;0.30;100.00;99565.66;1481473;87;21648;-82
2022/11/21 07:55:41;;;;;;;37.63;20.00;;;;;;;0.31;100.00;99566.01;1573048;87;21433;-82
2022/11/21 07:58:11;;;;;;;39.60;20.47;;;;;;;0.29;100.00;99565.30;1415640;87;22420;-81
2022/11/21 08:00:39;;;;;;;33.83;19.60;;;;;;;0.38;100.00;99556.87;1405741;87;21471;-82
2022/11/21 08:03:10;;;;;;;36.93;20.87;;;;;;;0.49;100.00;99557.89;1428935;87;21648;-81
2022/11/21 08:05:38;;;;;;;37.20;20.90;;;;;;;0.50;100.00;99555.67;1480958;87;22475;-82
2022/11/21 08:08:08;;;;;;;41.45;20.80;;;;;;;0.59;100.00;99561.06;1483327;87;21731;-83
2022/11/21 08:10:44;;;;;;;34.65;16.12;;;;;;;0.57;100.00;99553.83;1480663;87;21539;-81
2022/11/21 08:13:12;;;;;;;38.20;19.17;;;;;;;0.68;100.00;99552.62;1464015;87;21456;-81
2022/11/21 08:15:41;;;;;;;38.60;20.40;;;;;;;0.72;100.00;99555.87;1461285;87;21696;-81
2022/11/21 08:18:14;;;;;;;38.77;20.13;;;;;;;0.92;100.00;99554.45;1465623;87;22188;-81
2022/11/21 08:20:52;;;;;;;36.40;19.33;;;;;;;1.08;100.00;99555.05;1411126;87;21602;-81
2022/11/21 08:23:38;;;;;;;45.03;18.07;;;;;;;1.19;100.00;99558.20;1570496;87;21471;-81
2022/11/21 08:26:09;;;;;;;36.50;19.23;;;;;;;1.23;100.00;99567.45;1372655;92;21888;-81
2022/11/21 08:28:35;;;;;;;34.23;20.62;;;;;;;1.23;100.00;99567.45;1448774;91;22708;-81
2022/11/21 08:31:05;;;;;;;35.33;18.77;;;;;;;1.26;100.00;99563.33;1348336;92;21557;-81
2022/11/21 08:33:32;;;;;;;40.07;21.47;;;;;;;1.26;100.00;99563.33;1369880;90;21830;-81
2022/11/21 08:35:58;;;;;;;36.87;20.20;;;;;;;1.25;100.00;99567.36;1444537;89;21854;-81
2022/11/21 08:38:24;;;;;;;36.80;19.90;;;;;;;1.25;100.00;99573.40;1430942;89;22205;-79
2022/11/21 08:42:01;;;;;;;35.17;19.80;;;;;;;1.25;100.00;99572.09;1436855;89;21914;-77
2022/11/21 08:43:18;;;;;;;36.30;19.13;;;;;;;1.24;100.00;99574.83;1442768;89;21905;-77
2022/11/21 08:45:44;;;;;;;41.57;21.27;;;;;;;1.27;100.00;99578.05;1444927;89;21904;-77
2022/11/21 08:48:16;;;;;;;30.77;15.90;;;;;;;1.29;100.00;99571.40;1443763;89;21494;-79
2022/11/21 08:50:42;;;;;;;38.67;18.47;;;;;;;1.11;100.00;99571.77;1513508;89;21512;-78
2022/11/21 08:53:08;;;;;;;33.43;18.23;;;;;;;1.16;100.00;99571.45;1521281;89;21586;-79
2022/11/21 08:55:34;;;;;;;33.30;18.33;;;;;;;1.15;100.00;99576.76;1449365;89;22250;-78
2022/11/21 08:58:00;;;;;;;36.93;19.23;;;;;;;1.24;100.00;99576.13;1376801;89;21287;-77
2022/11/21 09:00:26;;;;;;;43.93;22.43;;;;;;;1.26;100.00;99576.84;1369562;89;21604;-80
2022/11/21 09:02:52;;;;;;;27.87;16.13;;;;;;;1.30;100.00;99572.61;1520437;87;21581;-79
2022/11/21 09:05:18;;;;;;;38.87;18.77;;;;;;;1.32;100.00;99576.39;1409696;87;21242;-79
2022/11/21 09:07:44;;;;;;;35.47;18.37;;;;;;;1.29;100.00;99575.31;1476916;87;21760;-79
2022/11/21 09:10:11;;;;;;;32.20;18.37;;;;;;;1.30;100.00;99573.91;1484795;87;22607;-79
2022/11/21 09:12:37;;;;;;;35.13;20.10;;;;;;;1.37;100.00;99570.39;1483581;87;22237;-79
2022/11/21 09:18:04;;;;;;;31.17;19.13;;;;;;;1.54;100.00;99565.27;1484266;87;21689;-79
2022/11/21 09:20:34;;;;;;;36.90;18.23;;;;;;;1.64;100.00;99564.11;1483111;87;21728;-80
2022/11/21 09:23:05;;;;;;;46.30;25.60;;;;;;;1.70;100.00;99560.61;1482817;87;21395;-80
2022/11/21 09:25:31;;;;;;;43.45;24.95;;;;;;;1.76;100.00;99564.06;1407840;87;22071;-79
2022/11/21 09:28:09;;;;;;;41.00;22.07;;;;;;;1.80;100.00;99553.75;1409221;87;21280;-79
2022/11/21 09:30:35;;;;;;;34.73;19.93;;;;;;;1.94;100.00;99548.00;1560754;87;21892;-78
2022/11/21 09:33:08;;;;;;;34.63;20.47;;;;;;;2.01;100.00;99534.83;1402493;89;21912;-77
2022/11/21 09:35:44;;;;;;;40.00;20.97;;;;;;;2.01;100.00;99534.83;1384169;90;22683;-77
2022/11/21 09:38:10;;;;;;;34.37;19.63;;;;;;;2.17;100.00;99547.10;1414683;87;21735;-79
2022/11/21 09:40:38;;;;;;;40.93;22.50;;;;;;;2.28;100.00;99548.91;1409863;87;22908;-79
2022/11/21 09:43:19;;;;;;;35.03;19.53;;;;;;;2.38;99.69;99554.25;1402739;87;22192;-79
2022/11/21 09:45:49;;;;;;;35.68;19.60;;;;;;;2.47;99.89;99553.10;1571920;87;21888;-81
2022/11/21 09:48:44;;;;;;;34.03;21.50;;;;;;;2.61;100.00;99546.80;1539814;87;21286;-79
2022/11/21 09:51:14;;;;;;;40.67;20.53;;;;;;;2.67;99.25;99541.09;1570723;87;21316;-82
2022/11/21 09:54:00;;;;;;;31.10;18.70;;;;;;;2.81;99.42;99536.10;1411497;87;22847;-80
2022/11/21 09:56:31;;;;;;;38.27;22.43;;;;;;;2.88;97.67;99537.78;1539391;87;22084;-80
2022/11/21 09:59:06;;;;;;;43.87;25.03;;;;;;;2.92;96.86;99535.27;1563829;87;22986;-80
2022/11/21 10:01:32;;;;;;;36.50;21.17;;;;;;;2.94;96.96;99535.99;1403579;90;22062;-80
2022/11/21 10:04:02;;;;;;;42.03;21.70;;;;;;;2.98;97.50;99523.02;1409649;87;23146;-81
2022/11/21 10:06:40;;;;;;;44.80;24.03;;;;;;;3.05;97.40;99529.89;1403510;89;21951;-80
2022/11/21 10:09:35;;;;;;;40.43;22.23;;;;;;;3.09;96.99;99528.23;1492200;87;23015;-82
2022/11/21 10:12:37;;;;;;;44.90;24.23;;;;;;;3.12;96.46;99521.45;1417861;87;22054;-80
2022/11/21 10:15:27;;;;;;;;;;;;;;;3.27;96.40;99514.16;1575100;87;22222;-80
2022/11/21 10:18:04;;;;;;;45.30;23.87;;;;;;;3.46;96.09;99517.44;1414895;90;20250;-81
2022/11/21 10:21:00;;;;;;;39.87;21.07;;;;;;;3.63;95.76;99513.94;1517354;90;23017;-80
2022/11/21 10:23:37;;;;;;;37.27;23.00;;;;;;;3.73;95.57;99512.21;1509467;88;22448;-80
2022/11/21 10:26:30;;;;;;;38.50;22.00;;;;;;;3.74;94.28;99509.48;1512915;90;21405;-82
2022/11/21 10:29:11;;;;;;;40.97;23.67;;;;;;;3.74;93.65;99503.39;1452135;90;21607;-80
2022/11/21 10:31:40;;;;;;;34.80;22.32;;;;;;;3.67;93.02;99504.87;1414605;90;21655;-80
2022/11/21 10:34:17;;;;;;;34.20;21.60;;;;;;;3.68;93.12;99505.21;1436480;90;21589;-80
2022/11/21 10:36:49;;;;;;;38.03;22.30;;;;;;;3.69;92.57;99506.41;1438053;90;22463;-79
2022/11/21 10:39:35;;;;;;;36.90;22.70;;;;;;;3.78;93.53;99502.20;1436030;90;23539;-86
2022/11/21 10:42:10;;;;;;;40.33;22.63;;;;;;;3.87;92.60;99498.81;1439114;90;21707;-86
2022/11/21 10:47:26;;;;;;;39.53;23.37;;;;;;;4.03;90.42;99497.08;1437976;90;21448;-76
2022/11/21 10:50:10;;;;;;;33.50;20.60;;;;;;;4.21;90.81;99490.28;1386652;90;22312;-85
2022/11/21 10:54:31;;;;;;;33.03;20.07;;;;;;;4.47;88.12;99490.67;1457946;90;21448;-86
2022/11/21 10:55:30;;;;;;;37.80;21.53;;;;;;;4.75;89.53;99490.93;1474371;87;22415;-86
2022/11/21 10:57:56;;;;;;;38.90;22.43;;;;;;;4.97;89.57;99495.94;1482636;88;21522;-85
2022/11/21 11:00:25;;;;;;;35.20;22.30;;;;;;;5.12;88.75;99481.13;1482966;88;21345;-84
2022/11/21 11:03:07;;;;;;;35.00;21.30;;;;;;;5.25;88.59;99476.46;1475795;88;21337;-81
2022/11/21 11:05:35;;;;;;;35.67;21.70;;;;;;;5.35;88.04;99474.69;1484281;88;21485;-84
2022/11/21 11:08:11;;;;;;;44.75;25.62;;;;;;;5.36;84.96;99476.82;1486603;88;21697;-83
2022/11/21 11:10:46;;;;;;;37.23;22.77;;;;;;;5.38;85.51;99477.03;1490962;88;21545;-84
2022/11/21 11:13:34;;;;;;;38.80;22.37;;;;;;;5.34;84.76;99472.19;1482734;88;21388;-84
2022/11/21 11:16:14;;;;;;;41.27;23.13;;;;;;;5.20;83.23;99474.72;1484610;88;21360;-84
2022/11/21 11:19:07;;;;;;;35.60;20.80;;;;;;;5.18;84.55;99466.18;1485639;88;21500;-84
2022/11/21 11:21:43;;;;;;;31.57;19.70;;;;;;;5.16;84.70;99463.68;1473685;88;22292;-85
2022/11/21 11:24:15;;;;;;;35.13;20.37;;;;;;;5.13;83.82;99468.37;1458908;88;21337;-85
2022/11/21 11:26:56;;;;;;;42.17;24.10;;;;;;;5.06;83.11;99476.42;1485412;88;21522;-85
2022/11/21 11:29:26;;;;;;;48.83;26.52;;;;;;;5.04;83.98;99478.38;1479752;88;21711;-85
2022/11/21 11:32:03;;;;;;;41.37;24.82;;;;;;;5.02;83.91;99476.36;1479125;88;21366;-84
2022/11/21 11:34:39;;;;;;;44.83;24.60;;;;;;;4.95;83.56;99484.77;1483208;88;22587;-85
2022/11/21 11:37:26;;;;;;;34.00;19.80;;;;;;;4.84;82.10;99477.50;1481118;88;21884;-83
2022/11/21 11:40:06;;;;;;;34.60;20.97;;;;;;;4.74;82.28;99477.45;1475327;88;21544;-83